Time;durP1;ratioP1;P1;durP2;ratioP2;P2;SDS_P1;SDS_P2;PMS_P1;PMS_P2;Temp;Humidity;BMP_temperature;BMP_pressure;BME280_temperature;BME280_humidity;BME280_pressure;Samples;Min_cycle;Max_cycle;Signal;HPM_P1;HPM_P2
2022/07/31 00:01:17;;;;;;;4.78;4.47;;;;;;;19.36;100.00;101726.53;5225097;28;20095;-67
2022/07/31 00:03:47;;;;;;;4.68;4.47;;;;;;;19.34;100.00;101734.25;5223994;28;20025;-67
2022/07/31 00:06:18;;;;;;;11.88;6.30;;;;;;;19.29;100.00;101731.59;5228643;28;20028;-66
2022/07/31 00:08:49;;;;;;;4.70;4.38;;;;;;;19.29;100.00;101731.59;5245050;28;20132;-66
2022/07/31 00:11:20;;;;;;;5.45;5.05;;;;;;;19.31;100.00;101726.63;5244741;28;20126;-66
2022/07/31 00:13:50;;;;;;;5.28;4.97;;;;;;;19.29;100.00;101726.09;5244079;28;20032;-66
2022/07/31 00:16:20;;;;;;;4.97;4.65;;;;;;;19.22;100.00;101714.69;5244882;28;20024;-67
2022/07/31 00:18:51;;;;;;;5.45;4.93;;;;;;;19.19;100.00;101721.56;5244794;28;20024;-67
2022/07/31 00:21:21;;;;;;;4.93;4.63;;;;;;;19.19;100.00;101734.44;5244008;28;20016;-66
2022/07/31 00:23:52;;;;;;;6.38;5.95;;;;;;;19.15;100.00;101736.13;5244106;28;20077;-67
2022/07/31 00:26:22;;;;;;;4.95;4.60;;;;;;;19.13;100.00;101728.19;5244848;28;20034;-67
2022/07/31 00:28:53;;;;;;;6.78;6.22;;;;;;;19.08;100.00;101725.53;5244736;28;20021;-67
2022/07/31 00:31:23;;;;;;;5.75;5.25;;;;;;;19.04;100.00;101723.69;5244272;28;20020;-67
2022/07/31 00:33:53;;;;;;;5.93;5.53;;;;;;;19.02;100.00;101717.69;5244004;28;20493;-67
2022/07/31 00:36:24;;;;;;;5.68;5.28;;;;;;;19.03;100.00;101725.59;5244478;28;20369;-66
2022/07/31 00:38:54;;;;;;;6.05;5.65;;;;;;;19.01;100.00;101724.25;5244711;28;20021;-67
2022/07/31 00:41:25;;;;;;;6.30;5.80;;;;;;;19.00;100.00;101726.19;5244068;28;20056;-67
2022/07/31 00:43:55;;;;;;;6.95;6.40;;;;;;;18.96;100.00;101716.91;5243661;28;20209;-66
2022/07/31 00:46:26;;;;;;;6.05;5.55;;;;;;;18.91;100.00;101713.41;5244064;28;20107;-67
2022/07/31 00:48:56;;;;;;;10.10;5.70;;;;;;;18.87;100.00;101716.72;5244563;28;20021;-66
2022/07/31 00:51:27;;;;;;;6.45;5.95;;;;;;;18.80;100.00;101704.50;5244429;28;20362;-66
2022/07/31 00:53:57;;;;;;;5.22;4.93;;;;;;;18.70;100.00;101691.75;5240063;28;20020;-66
2022/07/31 00:56:27;;;;;;;9.50;8.07;;;;;;;18.78;100.00;101702.06;5244105;28;20028;-67
2022/07/31 00:58:58;;;;;;;7.70;6.00;;;;;;;18.78;100.00;101702.06;5243984;28;20021;-66
2022/07/31 01:01:29;;;;;;;6.55;6.15;;;;;;;18.78;100.00;101703.97;5244277;28;20051;-65
2022/07/31 01:04:00;;;;;;;6.55;5.65;;;;;;;18.76;100.00;101695.25;5243745;28;20550;-66
2022/07/31 01:06:30;;;;;;;7.28;6.60;;;;;;;18.78;100.00;101690.28;5244310;28;20371;-67
2022/07/31 01:09:00;;;;;;;6.18;5.78;;;;;;;18.80;100.00;101699.84;5243758;28;20013;-66
2022/07/31 01:11:49;;;;;;;8.90;7.82;;;;;;;18.83;100.00;101692.97;5239397;28;20031;-66
2022/07/31 01:14:24;;;;;;;13.85;7.07;;;;;;;18.82;100.00;101680.41;5243577;28;20383;-66
2022/07/31 01:16:57;;;;;;;6.78;6.28;;;;;;;18.83;100.00;101688.31;5244243;28;20032;-66
2022/07/31 01:19:30;;;;;;;7.85;6.03;;;;;;;18.85;100.00;101682.56;5243962;28;20035;-66
2022/07/31 01:22:13;;;;;;;7.03;5.93;;;;;;;18.86;100.00;101684.19;5239421;28;20022;-66
2022/07/31 01:25:06;;;;;;;7.00;6.50;;;;;;;18.87;100.00;101694.03;5246538;28;20028;-66
2022/07/31 01:28:01;;;;;;;6.38;5.75;;;;;;;18.88;100.00;101698.41;5246384;28;20388;-66
2022/07/31 01:30:43;;;;;;;5.88;5.25;;;;;;;18.88;100.00;101706.59;5247979;28;20024;-65
2022/07/31 01:33:19;;;;;;;6.90;6.30;;;;;;;18.88;100.00;101701.13;5221089;28;20028;-66
2022/07/31 01:36:01;;;;;;;5.80;5.50;;;;;;;18.85;100.00;101697.06;5245184;28;20031;-67
2022/07/31 01:38:37;;;;;;;5.88;5.47;;;;;;;18.83;100.00;101690.25;5244863;28;20047;-65
2022/07/31 01:41:13;;;;;;;5.75;5.45;;;;;;;18.80;100.00;101688.91;5229703;28;20454;-65
2022/07/31 01:43:48;;;;;;;5.47;5.03;;;;;;;18.79;100.00;101694.66;5245858;28;20029;-65
2022/07/31 01:46:20;;;;;;;6.28;5.57;;;;;;;18.80;100.00;101688.06;5246889;28;20021;-65
2022/07/31 01:48:53;;;;;;;8.93;5.82;;;;;;;18.78;100.00;101695.75;5247143;28;20078;-65
2022/07/31 01:51:26;;;;;;;5.40;4.63;;;;;;;18.75;100.00;101697.19;5247454;28;20050;-65
2022/07/31 01:54:00;;;;;;;11.50;6.15;;;;;;;18.71;100.00;101695.31;5246285;28;20492;-66
2022/07/31 01:56:32;;;;;;;4.88;4.68;;;;;;;18.71;100.00;101701.59;5246659;28;20107;-65
2022/07/31 01:59:04;;;;;;;5.97;4.45;;;;;;;18.63;100.00;101685.81;5246654;28;20063;-66
2022/07/31 02:01:38;;;;;;;5.70;5.32;;;;;;;18.69;100.00;101697.53;5228828;28;20033;-65
2022/07/31 02:04:10;;;;;;;6.90;3.97;;;;;;;18.64;100.00;101689.38;5228238;28;20079;-66
2022/07/31 02:06:42;;;;;;;4.15;3.95;;;;;;;18.61;100.00;101696.22;5246558;28;20066;-65
2022/07/31 02:09:16;;;;;;;6.20;4.45;;;;;;;18.60;100.00;101696.50;5246559;28;20369;-65
2022/07/31 02:11:47;;;;;;;4.75;4.50;;;;;;;18.58;100.00;101688.56;5246758;28;20036;-65
2022/07/31 02:14:19;;;;;;;3.70;3.50;;;;;;;18.51;100.00;101685.34;5246082;28;20028;-64
2022/07/31 02:16:50;;;;;;;4.80;4.47;;;;;;;18.55;100.00;101680.94;5246739;28;20066;-65
2022/07/31 02:19:22;;;;;;;3.83;3.53;;;;;;;18.44;100.00;101676.69;5245711;28;20473;-66
2022/07/31 02:21:53;;;;;;;3.72;3.42;;;;;;;18.48;100.00;101674.97;5243777;28;20033;-67
2022/07/31 02:24:23;;;;;;;6.20;4.53;;;;;;;18.49;100.00;101685.63;5245956;28;20031;-66
2022/07/31 02:26:54;;;;;;;2.88;2.67;;;;;;;18.49;100.00;101684.81;5228759;28;20029;-67
2022/07/31 02:29:29;;;;;;;2.97;2.88;;;;;;;18.46;100.00;101677.22;5246735;28;20024;-65
2022/07/31 02:32:01;;;;;;;2.50;2.40;;;;;;;18.45;100.00;101675.59;5245959;28;20082;-65
2022/07/31 02:34:33;;;;;;;3.50;3.30;;;;;;;18.42;100.00;101681.63;5244336;28;20021;-65
2022/07/31 02:37:05;;;;;;;3.55;3.35;;;;;;;18.36;100.00;101680.84;5243893;28;20427;-66
2022/07/31 02:39:37;;;;;;;10.30;4.53;;;;;;;18.41;100.00;101688.19;5245923;28;20033;-66
2022/07/31 02:42:08;;;;;;;3.95;3.80;;;;;;;18.39;100.00;101679.47;5246266;28;20032;-65
2022/07/31 02:44:39;;;;;;;3.60;3.28;;;;;;;18.35;100.00;101679.22;5246264;28;20024;-65
2022/07/31 02:47:11;;;;;;;3.60;3.35;;;;;;;18.34;100.00;101688.53;5217265;28;20040;-66
2022/07/31 02:49:44;;;;;;;3.83;2.83;;;;;;;18.36;100.00;101688.25;5241120;28;20028;-65
2022/07/31 02:52:14;;;;;;;3.65;3.38;;;;;;;18.33;100.00;101664.22;5228683;28;20165;-66
2022/07/31 02:54:45;;;;;;;5.07;3.35;;;;;;;18.37;100.00;101662.53;5245434;28;20497;-66
2022/07/31 02:57:16;;;;;;;3.03;2.90;;;;;;;18.31;100.00;101655.47;5246180;28;20024;-66
2022/07/31 02:59:46;;;;;;;3.40;3.20;;;;;;;18.33;100.00;101658.75;5246651;28;20028;-64
2022/07/31 03:02:17;;;;;;;4.18;3.95;;;;;;;18.32;100.00;101660.66;5245571;28;20031;-64
2022/07/31 03:04:47;;;;;;;4.15;3.88;;;;;;;18.30;100.00;101664.78;5227476;28;20020;-64
2022/07/31 03:07:17;;;;;;;2.97;2.78;;;;;;;18.28;100.00;101665.06;5246468;28;20055;-64
2022/07/31 03:09:48;;;;;;;3.45;2.72;;;;;;;18.28;100.00;101658.78;5246718;28;20031;-65
2022/07/31 03:12:18;;;;;;;3.70;3.50;;;;;;;18.26;100.00;101648.13;5247539;28;20034;-67
2022/07/31 03:14:49;;;;;;;3.67;3.47;;;;;;;18.25;100.00;101653.88;5245850;28;20103;-65
2022/07/31 03:17:20;;;;;;;4.20;4.00;;;;;;;18.22;100.00;101649.81;5247413;28;20361;-64
2022/07/31 03:19:51;;;;;;;3.22;3.13;;;;;;;18.20;100.00;101647.38;5246922;28;20027;-65
2022/07/31 03:22:22;;;;;;;3.42;3.22;;;;;;;18.17;100.00;101644.41;5247238;28;20030;-64
2022/07/31 03:24:54;;;;;;;3.55;3.30;;;;;;;18.15;100.00;101649.34;5246667;28;20025;-65
2022/07/31 03:27:25;;;;;;;3.35;3.22;;;;;;;18.13;100.00;101657.84;5246418;28;20507;-65
2022/07/31 03:29:56;;;;;;;2.47;2.38;;;;;;;18.13;100.00;101657.84;5246569;28;20024;-65
2022/07/31 03:32:26;;;;;;;4.18;3.83;;;;;;;18.10;100.00;101652.94;5246259;28;20404;-65
2022/07/31 03:34:56;;;;;;;3.45;3.10;;;;;;;18.12;100.00;101650.75;5245768;28;20024;-64
2022/07/31 03:37:27;;;;;;;3.53;3.33;;;;;;;18.13;100.00;101651.56;5245934;28;20024;-65
2022/07/31 03:39:57;;;;;;;3.72;3.42;;;;;;;18.11;100.00;101651.84;5245811;28;20032;-65
2022/07/31 03:42:28;;;;;;;4.10;3.22;;;;;;;18.10;100.00;101643.94;5262685;22;20045;-79
2022/07/31 03:45:00;;;;;;;6.15;3.88;;;;;;;18.10;100.00;101663.06;5247650;28;20013;-78
2022/07/31 03:47:31;;;;;;;4.07;3.88;;;;;;;17.94;100.00;101632.28;5253661;28;20043;-78
2022/07/31 03:50:02;;;;;;;3.22;3.03;;;;;;;18.03;100.00;101636.06;5255194;28;20636;-79
2022/07/31 03:52:32;;;;;;;4.18;3.97;;;;;;;18.01;100.00;101640.16;5243621;28;20037;-78
2022/07/31 03:55:03;;;;;;;3.95;3.58;;;;;;;17.98;100.00;101636.09;5232488;28;20075;-78
2022/07/31 03:57:36;;;;;;;3.42;3.25;;;;;;;17.95;100.00;101636.66;5215431;28;20036;-78
2022/07/31 04:00:09;;;;;;;4.68;4.30;;;;;;;18.00;100.00;101650.28;5233802;28;20158;-79
2022/07/31 04:02:40;;;;;;;3.45;3.25;;;;;;;17.93;100.00;101629.84;5216737;28;20029;-79
2022/07/31 04:05:10;;;;;;;2.83;2.72;;;;;;;18.09;100.00;101662.25;5233615;28;20032;-79
2022/07/31 04:07:41;;;;;;;5.10;3.80;;;;;;;18.01;100.00;101649.19;5216073;28;20025;-80
2022/07/31 04:10:11;;;;;;;4.43;3.33;;;;;;;18.04;100.00;101653.28;5215945;28;20036;-79
2022/07/31 04:12:42;;;;;;;3.67;3.38;;;;;;;18.02;100.00;101645.34;5232646;28;20040;-78
2022/07/31 04:15:12;;;;;;;4.32;3.85;;;;;;;18.12;100.00;101663.59;5232047;28;20025;-79
2022/07/31 04:17:43;;;;;;;4.28;3.60;;;;;;;17.98;100.00;101643.47;5216072;28;20474;-78
2022/07/31 04:20:13;;;;;;;4.68;4.32;;;;;;;18.05;100.00;101658.44;5233841;28;20387;-79
2022/07/31 04:22:44;;;;;;;3.72;3.42;;;;;;;18.08;100.00;101655.16;5233310;28;20047;-79
2022/07/31 04:25:15;;;;;;;6.15;3.47;;;;;;;17.96;100.00;101634.75;5236028;28;20029;-79
2022/07/31 04:27:45;;;;;;;4.20;3.25;;;;;;;18.09;100.00;101654.03;5236587;28;20031;-79
2022/07/31 04:30:15;;;;;;;4.15;3.88;;;;;;;18.07;100.00;101648.03;5237514;28;20025;-79
2022/07/31 04:32:46;;;;;;;2.80;2.70;;;;;;;18.10;100.00;101642.00;5235931;28;20048;-79
2022/07/31 04:35:16;;;;;;;5.40;4.68;;;;;;;18.16;100.00;101660.00;5233670;28;20025;-79
2022/07/31 04:37:47;;;;;;;3.78;3.47;;;;;;;18.15;100.00;101661.09;5234476;28;20063;-80
2022/07/31 04:40:17;;;;;;;4.75;3.83;;;;;;;18.17;100.00;101669.03;5232887;28;20360;-81
2022/07/31 04:42:48;;;;;;;3.13;2.92;;;;;;;18.11;100.00;101649.09;5215731;28;20029;-79
2022/07/31 04:45:18;;;;;;;3.17;2.97;;;;;;;18.18;100.00;101659.72;5233227;28;20032;-79
2022/07/31 04:47:48;;;;;;;4.10;3.05;;;;;;;17.90;100.00;101609.41;5233833;28;20028;-79
2022/07/31 04:50:19;;;;;;;2.60;2.50;;;;;;;18.13;100.00;101635.97;5233903;28;20092;-79
2022/07/31 04:52:50;;;;;;;5.57;4.05;;;;;;;18.29;100.00;101663.16;5217533;28;20021;-80
2022/07/31 04:55:20;;;;;;;3.70;3.40;;;;;;;18.16;100.00;101632.66;5219629;28;20094;-80
2022/07/31 04:57:50;;;;;;;5.28;3.25;;;;;;;18.33;100.00;101653.28;5234966;28;20029;-81
2022/07/31 05:00:21;;;;;;;3.63;3.42;;;;;;;18.16;100.00;101629.94;5235751;28;20035;-81
2022/07/31 05:02:52;;;;;;;3.03;2.83;;;;;;;18.19;100.00;101629.31;5236467;28;20036;-80
2022/07/31 05:05:22;;;;;;;2.45;2.35;;;;;;;18.33;100.00;101639.59;5220786;28;20029;-79
2022/07/31 05:07:52;;;;;;;4.63;4.22;;;;;;;18.41;100.00;101644.44;5215924;28;20036;-80
2022/07/31 05:13:12;;;;;;;4.63;3.55;;;;;;;18.16;100.00;101596.31;5235902;28;20043;-79
2022/07/31 05:15:42;;;;;;;3.47;3.30;;;;;;;18.46;100.00;101638.94;5234742;28;20021;-80
2022/07/31 05:18:12;;;;;;;3.08;2.90;;;;;;;18.43;100.00;101623.09;5235965;28;20085;-79
2022/07/31 05:20:43;;;;;;;4.18;3.90;;;;;;;18.57;100.00;101640.44;5220425;28;20039;-79
2022/07/31 05:23:14;;;;;;;3.30;3.10;;;;;;;18.42;100.00;101611.34;5230596;28;20029;-79
2022/07/31 05:25:45;;;;;;;3.78;3.58;;;;;;;18.63;100.00;101639.31;5213185;28;20032;-81
2022/07/31 05:28:15;;;;;;;2.80;2.70;;;;;;;18.64;100.00;101643.66;5213998;28;20029;-80
2022/07/31 05:30:46;;;;;;;3.30;3.10;;;;;;;18.56;100.00;101617.72;5231491;28;20028;-79
2022/07/31 05:33:16;;;;;;;3.03;2.83;;;;;;;18.80;100.00;101644.28;5230311;28;20108;-79
2022/07/31 05:35:46;;;;;;;4.53;3.30;;;;;;;18.82;100.00;101640.16;5213190;28;20479;-79
2022/07/31 05:38:17;;;;;;;3.47;2.75;;;;;;;18.86;100.00;101633.00;5231926;28;20017;-79
2022/07/31 05:40:47;;;;;;;3.88;3.67;;;;;;;19.03;100.00;101643.47;5231730;28;20040;-78
2022/07/31 05:43:18;;;;;;;2.47;2.38;;;;;;;19.12;100.00;101646.34;5235421;28;20025;-78
2022/07/31 05:45:49;;;;;;;3.67;3.50;;;;;;;19.10;100.00;101634.88;5238115;28;20045;-78
2022/07/31 05:48:19;;;;;;;3.63;3.22;;;;;;;19.16;100.00;101641.91;5219477;28;20032;-78
2022/07/31 05:50:50;;;;;;;3.05;2.95;;;;;;;19.29;100.00;101656.81;5216951;28;20262;-78
2022/07/31 05:53:21;;;;;;;4.07;3.92;;;;;;;19.27;100.00;101643.44;5216230;28;20029;-77
2022/07/31 05:55:51;;;;;;;7.13;3.35;;;;;;;19.23;100.00;101629.50;5215595;28;20051;-79
2022/07/31 05:58:22;;;;;;;3.42;3.20;;;;;;;19.46;100.00;101655.19;5231435;28;20029;-78
2022/07/31 06:00:52;;;;;;;3.55;3.22;;;;;;;19.51;100.00;101649.66;5212493;28;20471;-78
2022/07/31 06:03:26;;;;;;;3.65;3.35;;;;;;;19.46;100.00;101633.28;5212336;28;20049;-79
2022/07/31 06:05:57;;;;;;;3.63;2.72;;;;;;;19.57;100.00;101642.19;5231238;28;20021;-78
2022/07/31 06:08:31;;;;;;;4.07;3.50;;;;;;;19.69;100.00;101644.47;5213333;28;20029;-78
2022/07/31 06:11:01;;;;;;;2.70;2.60;;;;;;;19.77;100.00;101641.06;5212998;28;20035;-78
2022/07/31 06:13:32;;;;;;;3.25;3.05;;;;;;;19.90;100.00;101640.31;5234435;28;20021;-77
2022/07/31 06:16:02;;;;;;;3.22;3.08;;;;;;;19.85;100.00;101629.41;5215458;28;20593;-77
2022/07/31 06:18:33;;;;;;;3.72;3.53;;;;;;;20.03;100.00;101642.25;5233083;28;20388;-77
2022/07/31 06:21:03;;;;;;;3.00;2.75;;;;;;;20.02;100.00;101631.59;5213810;28;20051;-78
2022/07/31 06:23:34;;;;;;;2.35;2.20;;;;;;;20.12;100.00;101647.88;5212903;28;20498;-78
2022/07/31 06:26:04;;;;;;;5.13;4.68;;;;;;;20.05;100.00;101631.81;5232701;28;20085;-78
2022/07/31 06:28:35;;;;;;;3.28;3.08;;;;;;;20.24;100.00;101643.50;5233931;28;20037;-79
2022/07/31 06:31:05;;;;;;;3.33;3.15;;;;;;;20.15;100.00;101623.41;5233592;28;20021;-79
2022/07/31 06:33:36;;;;;;;4.25;3.85;;;;;;;20.07;100.00;101599.41;5215657;28;20025;-79
2022/07/31 06:36:06;;;;;;;3.63;3.40;;;;;;;20.27;100.00;101627.56;5233587;28;20029;-79
2022/07/31 06:38:37;;;;;;;4.93;3.58;;;;;;;20.29;100.00;101628.91;5235484;28;20040;-79
2022/07/31 06:41:07;;;;;;;5.22;4.72;;;;;;;20.21;100.00;101622.19;5238072;28;20052;-78
2022/07/31 06:43:37;;;;;;;7.80;4.00;;;;;;;20.37;100.00;101646.59;5234600;28;20025;-79
2022/07/31 06:46:12;;;;;;;2.97;2.88;;;;;;;20.24;100.00;101629.00;5235075;28;20025;-79
2022/07/31 06:48:43;;;;;;;3.85;3.53;;;;;;;20.43;100.00;101653.66;5235243;28;20029;-78
2022/07/31 06:51:13;;;;;;;3.42;3.25;;;;;;;20.52;100.00;101646.31;5235825;28;20029;-79
2022/07/31 06:53:44;;;;;;;4.03;3.67;;;;;;;20.61;100.00;101654.69;5237012;28;20024;-79
2022/07/31 06:56:14;;;;;;;4.97;4.28;;;;;;;20.79;100.00;101657.31;5234780;28;20035;-79
2022/07/31 06:58:45;;;;;;;4.40;4.10;;;;;;;20.94;100.00;101647.97;5237564;28;20100;-79
2022/07/31 07:01:15;;;;;;;3.55;3.35;;;;;;;21.12;100.00;101649.75;5222593;28;20029;-79
2022/07/31 07:03:46;;;;;;;3.88;3.55;;;;;;;21.27;100.00;101623.94;5220789;28;20020;-80
2022/07/31 07:06:16;;;;;;;6.07;4.70;;;;;;;21.45;100.00;101633.94;5236302;28;20021;-79
2022/07/31 07:08:47;;;;;;;4.90;4.60;;;;;;;21.70;100.00;101628.97;5235476;28;20025;-79
2022/07/31 07:11:18;;;;;;;3.90;3.70;;;;;;;21.94;100.00;101610.22;5236155;28;20040;-81
2022/07/31 07:13:49;;;;;;;3.80;3.60;;;;;;;22.30;100.00;101628.56;5218022;28;20534;-81
2022/07/31 07:16:20;;;;;;;6.03;4.68;;;;;;;22.20;100.00;101618.66;5219970;28;20028;-79
2022/07/31 07:18:50;;;;;;;4.28;4.07;;;;;;;22.18;100.00;101638.22;5240733;28;20025;-79
2022/07/31 07:21:20;;;;;;;5.13;4.75;;;;;;;22.02;100.00;101622.41;5218564;28;20017;-80
2022/07/31 07:23:51;;;;;;;4.55;4.20;;;;;;;22.01;100.00;101599.59;5234823;28;20025;-81
2022/07/31 07:26:21;;;;;;;4.05;3.60;;;;;;;22.12;100.00;101614.72;5234525;28;20025;-80
2022/07/31 07:28:52;;;;;;;4.55;4.15;;;;;;;22.37;100.00;101626.16;5233590;28;20032;-80
2022/07/31 07:31:22;;;;;;;5.28;4.88;;;;;;;22.51;100.00;101616.69;5216508;28;20056;-80
2022/07/31 07:33:54;;;;;;;5.05;4.25;;;;;;;22.43;100.00;101611.97;5216085;28;20025;-80
2022/07/31 07:36:25;;;;;;;4.53;4.22;;;;;;;22.48;100.00;101631.09;5217028;28;20021;-80
2022/07/31 07:38:55;;;;;;;5.40;5.00;;;;;;;22.35;100.00;101620.16;5217032;28;20095;-81
2022/07/31 07:41:26;;;;;;;5.45;4.93;;;;;;;22.34;100.00;101613.84;5215891;28;20035;-80
2022/07/31 07:43:58;;;;;;;5.78;4.30;;;;;;;22.17;100.00;101592.59;5232408;28;20025;-80
2022/07/31 07:46:29;;;;;;;4.22;3.92;;;;;;;22.14;100.00;101543.69;5233641;28;20391;-81
2022/07/31 07:49:01;;;;;;;6.28;4.65;;;;;;;22.34;100.00;101575.31;5234105;28;20029;-81
2022/07/31 07:51:32;;;;;;;4.20;4.00;;;;;;;22.53;100.00;101600.63;5232319;28;20033;-80
2022/07/31 07:54:02;;;;;;;6.20;5.57;;;;;;;22.36;100.00;101592.34;5217557;28;20060;-81
2022/07/31 07:56:33;;;;;;;4.28;4.07;;;;;;;22.56;100.00;101611.03;5236033;28;20036;-81
2022/07/31 07:59:03;;;;;;;5.10;4.70;;;;;;;22.75;100.00;101613.53;5236564;28;20032;-81
2022/07/31 08:01:34;;;;;;;4.47;4.20;;;;;;;22.80;100.00;101607.09;5218886;28;20025;-82
2022/07/31 08:04:05;;;;;;;4.63;4.22;;;;;;;22.84;100.00;101595.09;5235941;28;20029;-82
2022/07/31 08:06:36;;;;;;;3.75;3.45;;;;;;;23.10;100.00;101613.63;5234114;28;20020;-82
2022/07/31 08:09:06;;;;;;;3.40;3.30;;;;;;;23.24;100.00;101604.06;5244120;28;20016;-81
2022/07/31 08:11:37;;;;;;;7.22;4.95;;;;;;;23.36;100.00;101617.22;5232202;28;20082;-81
2022/07/31 08:14:08;;;;;;;4.07;3.58;;;;;;;23.54;100.00;101605.06;5247644;28;20072;-82
2022/07/31 08:16:38;;;;;;;3.85;3.53;;;;;;;23.76;100.00;101622.56;5241919;28;20032;-81
2022/07/31 08:19:09;;;;;;;5.18;4.80;;;;;;;23.82;100.00;101619.31;5242262;28;20020;-81
2022/07/31 08:21:39;;;;;;;5.30;5.00;;;;;;;23.81;100.00;101590.09;5223695;28;20017;-82
2022/07/31 08:24:10;;;;;;;4.10;3.80;;;;;;;24.22;100.00;101608.03;5215598;28;20028;-81
2022/07/31 08:29:29;;;;;;;5.03;4.82;;;;;;;24.12;100.00;101620.22;5243714;28;20039;-81
2022/07/31 08:32:00;;;;;;;5.40;4.57;;;;;;;23.92;100.00;101618.16;5237981;28;20028;-82
2022/07/31 08:34:31;;;;;;;5.25;4.47;;;;;;;23.72;100.00;101600.34;5244824;28;20042;-81
2022/07/31 08:37:03;;;;;;;5.18;4.78;;;;;;;23.91;100.00;101605.50;5236366;28;20185;-81
2022/07/31 08:39:34;;;;;;;5.35;4.85;;;;;;;24.14;100.00;101614.38;5254115;28;20016;-81
2022/07/31 08:42:06;;;;;;;4.32;4.13;;;;;;;24.22;100.00;101595.03;5253484;28;20047;-81
2022/07/31 08:44:38;;;;;;;5.03;4.72;;;;;;;24.48;100.00;101558.25;5225924;28;20111;-81
2022/07/31 08:47:13;;;;;;;4.70;4.32;;;;;;;24.73;100.00;101559.22;5240908;28;20029;-82
2022/07/31 08:49:45;;;;;;;4.20;4.00;;;;;;;25.20;100.00;101615.16;5265774;28;20024;-81
2022/07/31 08:52:25;;;;;;;3.70;3.47;;;;;;;25.30;100.00;101600.94;5231486;28;20037;-81
2022/07/31 08:54:56;;;;;;;4.28;4.07;;;;;;;25.63;100.00;101589.13;5246212;28;20040;-82
2022/07/31 08:57:27;;;;;;;4.95;4.65;;;;;;;26.13;100.00;101595.28;5218935;28;20025;-82
2022/07/31 08:59:58;;;;;;;3.38;3.13;;;;;;;26.72;100.00;101619.81;5234405;28;20062;-82
2022/07/31 09:02:29;;;;;;;4.88;4.47;;;;;;;26.38;100.00;101600.88;5243671;28;20032;-80
2022/07/31 09:04:59;;;;;;;4.68;4.38;;;;;;;26.07;100.00;101627.09;5252618;28;20529;-81
2022/07/31 09:07:30;;;;;;;4.13;3.92;;;;;;;25.76;100.00;101612.94;5235100;28;20048;-80
2022/07/31 09:10:05;;;;;;;3.80;3.60;;;;;;;25.81;100.00;101610.75;5255592;28;20028;-81
2022/07/31 09:12:36;;;;;;;5.00;4.70;;;;;;;25.78;100.00;101591.25;5254423;28;20056;-81
2022/07/31 09:15:30;;;;;;;3.63;3.42;;;;;;;25.78;100.00;101605.09;5235909;28;20056;-81
2022/07/31 09:18:00;;;;;;;5.55;4.53;;;;;;;25.78;100.00;101600.38;5233556;28;20029;-81
2022/07/31 09:20:31;;;;;;;5.10;4.70;;;;;;;25.94;100.00;101569.28;5233714;28;20027;-83
2022/07/31 09:23:04;;;;;;;4.25;4.05;;;;;;;26.38;100.00;101595.31;5237689;28;20476;-81
2022/07/31 09:25:35;;;;;;;3.35;3.15;;;;;;;26.88;100.00;101592.97;5247879;28;20071;-80
2022/07/31 09:28:06;;;;;;;4.07;3.88;;;;;;;27.06;100.00;101578.91;5234190;28;20478;-80
2022/07/31 09:30:38;;;;;;;4.35;4.05;;;;;;;27.41;100.00;101593.81;5249111;28;20057;-79
2022/07/31 09:33:16;;;;;;;4.63;4.30;;;;;;;27.92;100.00;101584.91;5213448;28;20021;-80
2022/07/31 09:35:48;;;;;;;4.10;3.80;;;;;;;28.32;100.00;101593.91;5231530;28;20121;-81
2022/07/31 09:38:19;;;;;;;4.47;3.03;;;;;;;28.39;100.00;101584.94;5245723;28;20279;-81
2022/07/31 09:40:50;;;;;;;2.80;2.60;;;;;;;28.17;100.00;101578.84;5234261;28;20092;-81
2022/07/31 09:43:27;;;;;;;4.28;3.88;;;;;;;27.89;100.00;101594.75;5235060;22;20072;-82
2022/07/31 09:46:02;;;;;;;2.95;2.75;;;;;;;27.55;100.00;101566.47;5219938;28;20021;-83
2022/07/31 09:48:34;;;;;;;3.15;3.00;;;;;;;27.70;100.00;101591.88;5222312;28;20033;-83
2022/07/31 09:51:07;;;;;;;4.22;3.92;;;;;;;27.81;100.00;101574.34;5239003;28;20025;-84
2022/07/31 09:53:58;;;;;;;3.67;3.47;;;;;;;27.62;100.00;101574.22;5227055;28;20024;-84
2022/07/31 09:56:35;;;;;;;4.32;4.05;;;;;;;27.57;100.00;101574.44;5250101;28;20100;-84
2022/07/31 09:59:07;;;;;;;4.85;3.65;;;;;;;27.69;100.00;101596.63;5222437;28;20045;-84
2022/07/31 10:01:40;;;;;;;2.83;2.72;;;;;;;28.12;100.00;101595.78;5258548;28;20091;-84
2022/07/31 10:04:11;;;;;;;3.72;3.47;;;;;;;27.93;100.00;101564.31;5257345;28;20036;-84
2022/07/31 10:06:45;;;;;;;3.05;2.95;;;;;;;28.03;100.00;101575.69;5258060;28;20023;-83
2022/07/31 10:09:18;;;;;;;3.47;3.17;;;;;;;28.12;100.00;101594.97;5260332;28;20111;-83
2022/07/31 10:11:50;;;;;;;3.58;3.22;;;;;;;28.21;100.00;101599.22;5244432;28;20024;-84
2022/07/31 10:14:26;;;;;;;3.63;2.95;;;;;;;27.85;100.00;101593.84;5261763;28;20029;-83
2022/07/31 10:16:59;;;;;;;3.45;3.25;;;;;;;27.04;100.00;101539.63;5242179;28;20032;-83
2022/07/31 10:19:37;;;;;;;4.93;2.72;;;;;;;27.08;100.00;101543.31;5244310;28;20063;-85
2022/07/31 10:22:09;;;;;;;3.92;3.65;;;;;;;27.48;100.00;101582.91;5260068;28;20052;-84
2022/07/31 10:24:46;;;;;;;3.80;3.60;;;;;;;27.17;100.00;101589.13;5256597;28;20062;-84
2022/07/31 10:27:18;;;;;;;3.15;2.95;;;;;;;27.16;100.00;101539.56;5240486;28;20042;-83
2022/07/31 10:29:49;;;;;;;5.03;3.30;;;;;;;27.46;100.00;101578.88;5238299;28;20016;-85
2022/07/31 10:32:20;;;;;;;4.55;4.35;;;;;;;27.48;100.00;101587.66;5258595;28;20497;-84
2022/07/31 10:34:51;;;;;;;3.70;3.50;;;;;;;27.44;100.00;101561.75;5258215;28;20033;-84
2022/07/31 10:37:33;;;;;;;4.05;3.63;;;;;;;27.59;100.00;101587.97;5258056;28;20048;-84
2022/07/31 10:40:29;;;;;;;4.25;4.05;;;;;;;27.38;100.00;101564.00;5262316;28;20008;-83
2022/07/31 10:43:17;;;;;;;4.75;3.80;;;;;;;27.47;100.00;101567.41;5264843;28;20044;-83
2022/07/31 10:45:49;;;;;;;3.20;3.08;;;;;;;27.26;100.00;101514.13;5264749;28;20027;-82
2022/07/31 10:48:21;;;;;;;5.82;3.35;;;;;;;27.86;100.00;101564.94;5264883;28;20419;-82
2022/07/31 10:51:08;;;;;;;3.78;3.58;;;;;;;28.10;100.00;101564.78;5247840;28;20092;-82
2022/07/31 10:53:39;;;;;;;4.40;4.10;;;;;;;28.09;100.00;101548.47;5241985;28;20021;-83
2022/07/31 10:56:12;;;;;;;4.80;4.60;;;;;;;28.50;100.00;101563.81;5259206;28;20031;-84
2022/07/31 10:58:55;;;;;;;3.28;3.08;;;;;;;28.86;100.00;101568.25;5258747;28;20032;-84
2022/07/31 11:01:25;;;;;;;4.00;3.80;;;;;;;28.69;100.00;101572.19;5259442;28;20028;-84
2022/07/31 11:04:01;;;;;;;4.28;3.92;;;;;;;28.81;100.00;101554.63;5263553;28;20020;-83
2022/07/31 11:06:39;;;;;;;4.10;3.70;;;;;;;28.63;100.00;101545.84;5262861;28;20016;-83
2022/07/31 11:09:21;;;;;;;4.55;4.18;;;;;;;28.47;100.00;101553.41;5263208;28;20042;-84
2022/07/31 11:11:52;;;;;;;4.30;3.97;;;;;;;28.21;100.00;101548.41;5263556;28;20508;-83
2022/07/31 11:14:34;;;;;;;4.60;4.20;;;;;;;28.32;100.00;101559.78;5261227;28;20059;-82
2022/07/31 11:17:04;;;;;;;4.22;3.80;;;;;;;28.50;100.00;101561.03;5262531;28;20038;-83
2022/07/31 11:19:42;;;;;;;4.03;3.75;;;;;;;28.75;100.00;101526.25;5244205;28;20111;-82
2022/07/31 11:22:14;;;;;;;3.22;3.03;;;;;;;28.80;100.00;101514.06;5264209;28;20091;-85
2022/07/31 11:24:55;;;;;;;4.13;3.92;;;;;;;28.70;100.00;101511.84;5247761;28;20035;-86
2022/07/31 11:27:32;;;;;;;6.43;4.05;;;;;;;28.98;100.00;101545.03;5265174;28;20020;-85
2022/07/31 11:30:07;;;;;;;3.22;2.97;;;;;;;28.74;100.00;101530.22;5248027;28;20021;-85
2022/07/31 11:32:38;;;;;;;5.45;4.38;;;;;;;28.44;100.00;101527.16;5270751;28;20024;-84
2022/07/31 11:35:08;;;;;;;3.42;3.13;;;;;;;28.33;100.00;101523.31;5269690;28;20028;-83
2022/07/31 11:37:42;;;;;;;3.75;3.55;;;;;;;28.29;100.00;101529.97;5271931;28;20078;-83
2022/07/31 11:40:13;;;;;;;3.60;3.40;;;;;;;28.32;100.00;101554.22;5266086;28;20074;-83
2022/07/31 11:42:44;;;;;;;6.28;3.60;;;;;;;28.19;100.00;101550.72;5245374;28;20032;-84
2022/07/31 11:45:16;;;;;;;3.70;3.50;;;;;;;27.90;100.00;101538.09;5263841;28;20021;-84